createdAt,value
2019-05-19T00:00:35.912Z,100461.90
2019-05-19T00:03:05.379Z,100461.90
2019-05-19T00:05:36.691Z,100453.58
2019-05-19T00:08:06.250Z,100454.70
2019-05-19T00:10:35.962Z,100457.48
2019-05-19T00:13:05.418Z,100456.95
2019-05-19T00:15:35.149Z,100469.37
2019-05-19T00:18:04.545Z,100470.41
2019-05-19T00:20:34.279Z,100474.45
2019-05-19T00:23:04.226Z,100474.45
2019-05-19T00:25:34.412Z,100470.84
2019-05-19T00:28:04.440Z,100476.09
2019-05-19T00:30:34.471Z,100475.95
2019-05-19T00:33:04.115Z,100471.48
2019-05-19T00:35:33.659Z,100472.06
2019-05-19T00:38:03.260Z,100470.50
2019-05-19T00:40:32.850Z,100464.16
2019-05-19T00:43:02.387Z,100463.20
2019-05-19T00:45:32.107Z,100459.81
2019-05-19T00:48:01.774Z,100459.81
2019-05-19T00:50:31.148Z,100449.66
2019-05-19T00:53:02.972Z,100448.83
2019-05-19T00:55:32.556Z,100454.22
2019-05-19T00:58:04.301Z,100456.91
2019-05-19T01:00:35.796Z,100451.30
2019-05-19T01:03:06.886Z,100444.44
2019-05-19T01:05:36.355Z,100443.77
2019-05-19T01:08:05.905Z,100441.34
2019-05-19T01:10:35.405Z,100446.52
2019-05-19T01:13:05.007Z,100440.00
2019-05-19T01:15:34.704Z,100434.86
2019-05-19T01:18:04.304Z,100433.27
2019-05-19T01:20:35.356Z,100431.79
2019-05-19T01:23:05.067Z,100431.09
2019-05-19T01:25:34.637Z,100430.92
2019-05-19T01:28:04.201Z,100429.58
2019-05-19T01:30:36.407Z,100431.53
2019-05-19T01:33:08.219Z,100427.12
2019-05-19T01:35:37.632Z,100430.50
2019-05-19T01:38:07.026Z,100428.41
2019-05-19T01:40:36.511Z,100431.19
2019-05-19T01:43:06.198Z,100436.87
2019-05-19T01:45:35.699Z,100436.09
2019-05-19T01:48:08.113Z,100431.70
2019-05-19T01:50:37.477Z,100433.19
2019-05-19T01:53:08.933Z,100438.64
2019-05-19T01:55:38.347Z,100424.81
2019-05-19T01:58:07.852Z,100429.80
2019-05-19T02:00:37.212Z,100427.24
2019-05-19T02:03:07.057Z,100432.09
2019-05-19T02:05:37.648Z,100432.70
2019-05-19T02:08:07.021Z,100428.45
2019-05-19T02:10:36.443Z,100426.20
2019-05-19T02:13:05.971Z,100428.75
2019-05-19T02:15:35.382Z,100420.59
2019-05-19T02:18:07.347Z,100423.50
2019-05-19T02:20:36.752Z,100428.79
2019-05-19T02:23:09.012Z,100427.10
2019-05-19T02:25:38.437Z,100430.75
2019-05-19T02:28:07.858Z,100433.31
2019-05-19T02:30:37.228Z,100425.03
2019-05-19T02:33:07.938Z,100426.89
2019-05-19T02:35:37.283Z,100423.77
2019-05-19T02:38:06.674Z,100426.08
2019-05-19T02:40:44.853Z,100424.59
2019-05-19T02:43:15.717Z,100430.66
2019-05-19T02:45:46.021Z,100426.33
2019-05-19T02:48:16.171Z,100426.69
2019-05-19T02:50:52.736Z,100426.25
2019-05-19T02:53:20.917Z,100424.55
2019-05-19T02:55:51.723Z,100421.98
2019-05-19T02:58:21.728Z,100419.98
2019-05-19T03:00:51.148Z,100423.20
2019-05-19T03:03:22.194Z,100420.59
2019-05-19T03:05:51.609Z,100419.98
2019-05-19T03:08:20.978Z,100417.52
2019-05-19T03:10:50.384Z,100420.28
2019-05-19T03:13:19.774Z,100430.69
2019-05-19T03:15:49.627Z,100426.44
2019-05-19T03:18:19.046Z,100429.17
2019-05-19T03:20:48.924Z,100433.73
2019-05-19T03:23:18.334Z,100434.77
2019-05-19T03:25:47.805Z,100427.77
2019-05-19T03:28:17.159Z,100441.88
2019-05-19T03:31:18.048Z,100434.19
2019-05-19T03:33:48.964Z,100444.56
2019-05-19T03:36:18.298Z,100439.78
2019-05-19T03:38:47.719Z,100441.66
2019-05-19T03:41:17.115Z,100444.30
2019-05-19T03:43:49.090Z,100440.83
2019-05-19T03:46:18.639Z,100439.34
2019-05-19T03:48:48.209Z,100446.45
2019-05-19T03:51:30.175Z,100443.06
2019-05-19T03:53:48.698Z,100439.21
2019-05-19T03:56:18.070Z,100443.70
2019-05-19T03:58:47.541Z,100438.52
2019-05-19T04:01:17.034Z,100433.06
2019-05-19T04:03:49.972Z,100437.00
2019-05-19T04:06:19.585Z,100426.38
2019-05-19T04:08:48.976Z,100433.41
2019-05-19T04:11:18.376Z,100430.12
2019-05-19T04:13:47.777Z,100424.73
2019-05-19T04:16:17.169Z,100428.55
2019-05-19T04:18:46.713Z,100428.95
2019-05-19T04:21:16.498Z,100428.13
2019-05-19T04:23:45.929Z,100434.45
2019-05-19T04:26:15.349Z,100437.37
2019-05-19T04:28:44.759Z,100432.36
2019-05-19T04:31:14.121Z,100430.12
2019-05-19T04:33:43.553Z,100437.45
2019-05-19T04:36:12.923Z,100431.02
2019-05-19T04:38:42.810Z,100431.84
2019-05-19T04:41:12.234Z,100432.06
2019-05-19T04:43:41.816Z,100432.63
2019-05-19T04:46:11.214Z,100428.52
2019-05-19T04:48:40.589Z,100425.78
2019-05-19T04:51:10.425Z,100429.73
2019-05-19T04:53:39.822Z,100429.28
2019-05-19T04:56:09.194Z,100434.63
2019-05-19T04:58:38.848Z,100424.92
2019-05-19T05:01:08.244Z,100429.55
2019-05-19T05:03:38.465Z,100434.21
2019-05-19T05:06:08.142Z,100437.17
2019-05-19T05:08:37.526Z,100431.29
2019-05-19T05:11:06.939Z,100433.66
2019-05-19T05:13:36.416Z,100434.47
2019-05-19T05:16:07.806Z,100427.44
2019-05-19T05:18:37.205Z,100425.49
2019-05-19T05:21:06.621Z,100431.25
2019-05-19T05:23:49.253Z,100434.28
2019-05-19T05:26:18.693Z,100430.37
2019-05-19T05:28:48.090Z,100429.96
2019-05-19T05:31:17.563Z,100436.55
2019-05-19T05:33:46.978Z,100436.26
2019-05-19T05:36:16.340Z,100440.30
2019-05-19T05:38:48.604Z,100435.90
2019-05-19T05:41:18.077Z,100429.09
2019-05-19T05:43:47.508Z,100441.48
2019-05-19T05:46:16.883Z,100437.77
2019-05-19T05:48:46.775Z,100441.42
2019-05-19T05:51:16.176Z,100440.23
2019-05-19T05:53:48.371Z,100451.46
2019-05-19T05:56:17.788Z,100453.86
2019-05-19T05:58:48.130Z,100455.67
2019-05-19T06:01:17.527Z,100447.45
2019-05-19T06:03:47.812Z,100452.15
2019-05-19T06:06:17.568Z,100452.31
2019-05-19T06:08:46.957Z,100455.73
2019-05-19T06:11:18.798Z,100451.97
2019-05-19T06:13:49.664Z,100457.87
2019-05-19T06:16:19.333Z,100454.03
2019-05-19T06:18:48.741Z,100451.75
2019-05-19T06:21:18.119Z,100451.04
2019-05-19T06:23:47.521Z,100449.59
2019-05-19T06:26:16.895Z,100455.35
2019-05-19T06:28:46.313Z,100456.88
2019-05-19T06:31:15.756Z,100449.84
2019-05-19T06:33:45.232Z,100452.83
2019-05-19T06:36:14.605Z,100447.19
2019-05-19T06:38:43.996Z,100451.73
2019-05-19T06:41:13.671Z,100455.01
2019-05-19T06:43:43.118Z,100459.48
2019-05-19T06:46:12.529Z,100463.12
2019-05-19T06:48:41.940Z,100457.70
2019-05-19T06:51:11.292Z,100461.46
2019-05-19T06:53:40.661Z,100452.84
2019-05-19T06:56:13.260Z,100453.41
2019-05-19T06:58:42.658Z,100453.28
2019-05-19T07:01:12.008Z,100459.84
2019-05-19T07:03:41.421Z,100465.67
2019-05-19T07:06:11.234Z,100455.95
2019-05-19T07:08:40.594Z,100459.20
2019-05-19T07:11:14.094Z,100458.39
2019-05-19T07:13:45.525Z,100457.98
2019-05-19T07:16:14.954Z,100461.27
2019-05-19T07:18:44.349Z,100460.75
2019-05-19T07:21:13.744Z,100461.56
2019-05-19T07:23:43.098Z,100460.12
2019-05-19T07:26:12.528Z,100460.27
2019-05-19T07:28:41.901Z,100460.03
2019-05-19T07:31:11.283Z,100462.62
2019-05-19T07:33:40.746Z,100473.20
2019-05-19T07:36:10.107Z,100474.80
2019-05-19T07:38:39.483Z,100483.98
2019-05-19T07:41:09.071Z,100483.84
2019-05-19T07:43:38.441Z,100487.91
2019-05-19T07:46:07.849Z,100493.27
2019-05-19T07:48:37.387Z,100487.61
2019-05-19T07:51:08.695Z,100487.63
2019-05-19T07:53:42.918Z,100484.73
2019-05-19T07:56:09.273Z,100483.91
2019-05-19T07:58:38.732Z,100482.27
2019-05-19T08:01:08.324Z,100491.09
2019-05-19T08:03:37.879Z,100492.88
2019-05-19T08:06:08.094Z,100494.48
2019-05-19T08:08:37.506Z,100494.93
2019-05-19T08:11:09.267Z,100497.44
2019-05-19T08:13:38.637Z,100500.91
2019-05-19T08:16:08.074Z,100504.00
2019-05-19T08:18:37.534Z,100511.70
2019-05-19T08:21:07.239Z,100510.83
2019-05-19T08:23:36.813Z,100506.42
2019-05-19T08:26:09.573Z,100509.19
2019-05-19T08:28:38.951Z,100514.78
2019-05-19T08:31:08.620Z,100510.59
2019-05-19T08:33:38.056Z,100510.88
2019-05-19T08:36:07.482Z,100517.45
2019-05-19T08:38:37.074Z,100514.41
2019-05-19T08:41:06.973Z,100507.73
2019-05-19T08:43:36.388Z,100508.02
2019-05-19T08:46:06.014Z,100509.80
2019-05-19T08:48:35.504Z,100514.87
2019-05-19T08:51:04.984Z,100513.20
2019-05-19T08:53:36.237Z,100512.59
2019-05-19T08:56:05.783Z,100521.63
2019-05-19T08:58:35.265Z,100522.52
2019-05-19T09:01:04.856Z,100521.63
2019-05-19T09:03:37.175Z,100524.25
2019-05-19T09:06:07.333Z,100534.06
2019-05-19T09:08:36.941Z,100533.50
2019-05-19T09:11:06.373Z,100529.69
2019-05-19T09:13:35.973Z,100528.19
2019-05-19T09:16:05.436Z,100532.53
2019-05-19T09:18:38.081Z,100523.10
2019-05-19T09:21:07.473Z,100528.37
2019-05-19T09:23:38.872Z,100529.44
2019-05-19T09:26:08.346Z,100537.17
2019-05-19T09:28:37.719Z,100533.98
2019-05-19T09:31:07.329Z,100531.80
2019-05-19T09:33:39.152Z,100533.20
2019-05-19T09:36:08.523Z,100532.14
2019-05-19T09:38:37.875Z,100536.55
2019-05-19T09:41:07.300Z,100530.16
2019-05-19T09:43:38.540Z,100528.08
2019-05-19T09:46:07.969Z,100525.60
2019-05-19T09:48:37.680Z,100535.70
2019-05-19T09:51:09.946Z,100538.61
2019-05-19T09:53:39.326Z,100544.11
2019-05-19T09:56:08.781Z,100540.34
2019-05-19T09:58:38.153Z,100531.02
2019-05-19T10:01:07.639Z,100529.66
2019-05-19T10:03:37.355Z,100533.05
2019-05-19T10:06:10.416Z,100525.37
2019-05-19T10:08:46.456Z,100534.02
2019-05-19T10:11:58.712Z,100530.54
2019-05-19T10:14:28.226Z,100532.45
2019-05-19T10:17:00.123Z,100530.19
2019-05-19T10:19:30.926Z,100532.42
2019-05-19T10:22:00.895Z,100531.47
2019-05-19T10:24:30.305Z,100534.58
2019-05-19T10:26:59.808Z,100528.94
2019-05-19T10:29:29.337Z,100532.50
2019-05-19T10:31:59.014Z,100535.47
2019-05-19T10:34:28.379Z,100535.03
2019-05-19T10:36:57.939Z,100535.87
2019-05-19T10:39:27.334Z,100532.53
2019-05-19T10:41:56.942Z,100525.61
2019-05-19T10:44:26.389Z,100531.54
2019-05-19T10:46:55.742Z,100534.11
2019-05-19T10:49:25.149Z,100528.63
2019-05-19T10:51:55.024Z,100524.28
2019-05-19T10:54:24.412Z,100525.94
2019-05-19T10:56:53.831Z,100532.45
2019-05-19T10:59:23.277Z,100538.98
2019-05-19T11:01:52.876Z,100531.95
2019-05-19T11:04:22.250Z,100536.23
2019-05-19T11:06:51.736Z,100541.59
2019-05-19T11:09:22.139Z,100541.84
2019-05-19T11:11:52.017Z,100539.90
2019-05-19T11:14:21.458Z,100546.84
2019-05-19T11:16:50.840Z,100541.28
2019-05-19T11:19:20.201Z,100530.61
2019-05-19T11:21:50.017Z,100530.45
2019-05-19T11:24:19.428Z,100530.31
2019-05-19T11:26:48.793Z,100524.63
2019-05-19T11:29:18.546Z,100527.39
2019-05-19T11:31:47.971Z,100531.78
2019-05-19T11:34:17.341Z,100532.55
2019-05-19T11:36:46.965Z,100527.66
2019-05-19T11:39:16.369Z,100544.55
2019-05-19T11:41:45.854Z,100538.28
2019-05-19T11:44:15.252Z,100538.61
2019-05-19T11:46:44.633Z,100539.97
2019-05-19T11:49:17.137Z,100541.53
2019-05-19T11:51:46.828Z,100541.55
2019-05-19T11:54:16.211Z,100538.55
2019-05-19T11:56:45.585Z,100536.64
2019-05-19T11:59:17.369Z,100539.15
2019-05-19T12:01:46.755Z,100534.36
2019-05-19T12:04:16.228Z,100531.35
2019-05-19T12:06:45.715Z,100543.61
2019-05-19T12:09:15.283Z,100540.64
2019-05-19T12:11:44.966Z,100538.23
2019-05-19T12:14:15.144Z,100535.50
2019-05-19T12:16:44.554Z,100532.78
2019-05-19T12:19:14.003Z,100528.71
2019-05-19T12:21:43.541Z,100532.80
2019-05-19T12:24:12.948Z,100530.61
2019-05-19T12:26:42.351Z,100531.72
2019-05-19T12:29:12.703Z,100530.86
2019-05-19T12:31:42.097Z,100536.34
2019-05-19T12:34:11.505Z,100540.70
2019-05-19T12:36:40.983Z,100536.33
2019-05-19T12:39:10.388Z,100537.42
2019-05-19T12:41:39.768Z,100542.58
2019-05-19T12:44:09.347Z,100541.52
2019-05-19T12:46:38.774Z,100544.23
2019-05-19T12:49:08.256Z,100538.23
2019-05-19T12:51:37.776Z,100534.69
2019-05-19T12:54:07.255Z,100533.32
2019-05-19T12:56:39.685Z,100531.69
2019-05-19T12:59:08.097Z,100528.17
2019-05-19T13:01:37.500Z,100526.22
2019-05-19T13:04:06.979Z,100518.31
2019-05-19T13:06:36.401Z,100519.41
2019-05-19T13:09:07.509Z,100518.91
2019-05-19T13:11:37.432Z,100514.25
2019-05-19T13:14:08.326Z,100515.64
2019-05-19T13:16:37.731Z,100512.55
2019-05-19T13:19:07.317Z,100514.06
2019-05-19T13:21:36.854Z,100517.59
2019-05-19T13:24:06.294Z,100522.50
2019-05-19T13:26:35.897Z,100513.50
2019-05-19T13:29:05.270Z,100518.44
2019-05-19T13:31:35.246Z,100521.23
2019-05-19T13:34:04.924Z,100513.36
2019-05-19T13:36:40.192Z,100515.27
2019-05-19T13:39:08.653Z,100507.05
2019-05-19T13:41:38.007Z,100512.50
2019-05-19T13:44:07.811Z,100513.53
2019-05-19T13:46:40.307Z,100506.40
2019-05-19T13:49:09.760Z,100510.30
2019-05-19T13:51:39.176Z,100504.66
2019-05-19T13:54:08.524Z,100497.89
2019-05-19T13:56:37.921Z,100507.98
2019-05-19T13:59:07.412Z,100504.37
2019-05-19T14:01:39.363Z,100498.16
2019-05-19T14:04:08.802Z,100495.69
2019-05-19T14:06:38.868Z,100504.50
2019-05-19T14:09:08.682Z,100499.38
2019-05-19T14:11:38.400Z,100492.23
2019-05-19T14:14:07.897Z,100498.91
2019-05-19T14:16:37.371Z,100489.45
2019-05-19T14:19:06.778Z,100485.98
2019-05-19T14:21:39.061Z,100482.88
2019-05-19T14:24:08.429Z,100484.77
2019-05-19T14:26:37.822Z,100482.33
2019-05-19T14:29:07.343Z,100483.23
2019-05-19T14:31:36.824Z,100475.41
2019-05-19T14:34:06.359Z,100470.78
2019-05-19T14:36:36.276Z,100470.33
2019-05-19T14:39:07.308Z,100476.35
2019-05-19T14:41:42.712Z,100476.63
2019-05-19T14:44:12.084Z,100463.07
2019-05-19T14:46:41.470Z,100469.44
2019-05-19T14:49:10.889Z,100468.95
2019-05-19T14:51:40.283Z,100473.97
2019-05-19T14:54:09.696Z,100471.23
2019-05-19T14:56:39.182Z,100472.78
2019-05-19T14:59:08.554Z,100472.44
2019-05-19T15:01:37.930Z,100467.56
2019-05-19T15:04:07.415Z,100456.41
2019-05-19T15:06:36.978Z,100464.05
2019-05-19T15:09:07.771Z,100464.10
2019-05-19T15:11:37.359Z,100455.39
2019-05-19T15:14:07.027Z,100460.67
2019-05-19T15:16:36.444Z,100459.65
2019-05-19T15:19:06.095Z,100456.91
2019-05-19T15:21:37.807Z,100453.25
2019-05-19T15:24:07.195Z,100447.13
2019-05-19T15:26:36.699Z,100442.29
2019-05-19T15:29:06.750Z,100448.02
2019-05-19T15:31:40.893Z,100445.52
2019-05-19T15:34:10.207Z,100440.77
2019-05-19T15:36:39.685Z,100435.04
2019-05-19T15:39:09.113Z,100431.16
2019-05-19T15:41:38.537Z,100437.70
2019-05-19T15:44:07.971Z,100433.12
2019-05-19T15:46:37.418Z,100431.98
2019-05-19T15:49:08.894Z,100428.62
2019-05-19T15:51:56.068Z,100433.56
2019-05-19T15:54:12.254Z,100431.62
2019-05-19T15:56:41.968Z,100427.92
2019-05-19T15:59:16.762Z,100420.09
2019-05-19T16:01:46.130Z,100430.11
2019-05-19T16:04:15.520Z,100426.34
2019-05-19T16:06:44.924Z,100419.78
2019-05-19T16:09:16.094Z,100418.73
2019-05-19T16:11:45.649Z,100422.44
2019-05-19T16:14:15.417Z,100411.66
2019-05-19T16:16:45.019Z,100415.52
2019-05-19T16:19:14.431Z,100408.48
2019-05-19T16:21:43.930Z,100407.71
2019-05-19T16:24:15.891Z,100410.20
2019-05-19T16:26:45.316Z,100414.76
2019-05-19T16:29:14.730Z,100402.63
2019-05-19T16:31:44.120Z,100400.52
2019-05-19T16:34:17.902Z,100402.90
2019-05-19T16:36:47.352Z,100393.84
2019-05-19T16:39:16.784Z,100390.38
2019-05-19T16:41:46.162Z,100399.52
2019-05-19T16:44:17.723Z,100399.86
2019-05-19T16:46:47.145Z,100395.66
2019-05-19T16:49:18.500Z,100398.33
2019-05-19T16:51:48.276Z,100396.55
2019-05-19T16:54:22.789Z,100394.97
2019-05-19T16:56:52.223Z,100394.98
2019-05-19T16:59:21.677Z,100389.03
2019-05-19T17:01:51.116Z,100385.72
2019-05-19T17:04:20.757Z,100382.34
2019-05-19T17:06:50.180Z,100391.42
2019-05-19T17:09:19.596Z,100384.18
2019-05-19T17:11:49.072Z,100385.36
2019-05-19T17:14:18.639Z,100386.92
2019-05-19T17:16:48.340Z,100394.67
2019-05-19T17:19:17.743Z,100389.69
2019-05-19T17:21:47.105Z,100382.50
2019-05-19T17:24:16.688Z,100387.05
2019-05-19T17:26:46.532Z,100387.81
2019-05-19T17:29:15.932Z,100402.77
2019-05-19T17:31:45.331Z,100398.73
2019-05-19T17:34:16.975Z,100394.50
2019-05-19T17:36:46.343Z,100394.59
2019-05-19T17:39:16.099Z,100395.54
2019-05-19T17:41:45.718Z,100393.42
2019-05-19T17:44:15.154Z,100393.70
2019-05-19T17:46:44.578Z,100383.34
2019-05-19T17:49:13.971Z,100367.81
2019-05-19T17:51:43.352Z,100371.14
2019-05-19T17:54:12.786Z,100367.12
2019-05-19T17:56:42.683Z,100369.06
2019-05-19T17:59:16.428Z,100366.37
2019-05-19T18:01:44.882Z,100377.02
2019-05-19T18:04:14.298Z,100379.75
2019-05-19T18:06:43.714Z,100394.42
2019-05-19T18:09:13.177Z,100392.53
2019-05-19T18:11:42.652Z,100408.28
2019-05-19T18:14:12.184Z,100411.80
2019-05-19T18:16:41.625Z,100411.20
2019-05-19T18:19:11.444Z,100416.63
2019-05-19T18:21:40.866Z,100403.58
2019-05-19T18:24:10.241Z,100395.38
2019-05-19T18:26:39.667Z,100408.10
2019-05-19T18:29:09.045Z,100401.26
2019-05-19T18:31:38.426Z,100400.16
2019-05-19T18:34:07.918Z,100408.54
2019-05-19T18:36:37.691Z,100403.09
2019-05-19T18:39:07.517Z,100404.70
2019-05-19T18:41:36.925Z,100406.04
2019-05-19T18:44:06.321Z,100405.50
2019-05-19T18:46:37.547Z,100398.42
2019-05-19T18:49:07.050Z,100401.68
2019-05-19T18:51:36.468Z,100402.20
2019-05-19T18:54:08.204Z,100409.20
2019-05-19T18:56:37.842Z,100418.44
2019-05-19T18:59:07.333Z,100415.14
2019-05-19T19:01:36.823Z,100412.67
2019-05-19T19:04:06.350Z,100418.03
2019-05-19T19:06:35.917Z,100416.91
2019-05-19T19:09:06.549Z,100422.86
2019-05-19T19:11:36.206Z,100418.70
2019-05-19T19:14:05.969Z,100420.27
2019-05-19T19:16:35.367Z,100429.69
2019-05-19T19:19:04.907Z,100440.52
2019-05-19T19:21:36.935Z,100434.75
2019-05-19T19:24:06.323Z,100431.45
2019-05-19T19:26:35.910Z,100429.50
2019-05-19T19:29:05.524Z,100427.27
2019-05-19T19:31:47.747Z,100422.12
2019-05-19T19:34:06.534Z,100424.20
2019-05-19T19:36:36.077Z,100425.81
2019-05-19T19:39:06.584Z,100429.00
2019-05-19T19:41:36.386Z,100425.94
2019-05-19T19:44:06.357Z,100427.80
2019-05-19T19:46:37.693Z,100428.80
2019-05-19T19:49:07.109Z,100430.94
2019-05-19T19:51:36.588Z,100431.16
2019-05-19T19:54:06.136Z,100426.16
2019-05-19T19:56:35.910Z,100433.19
2019-05-19T19:59:05.363Z,100426.91
2019-05-19T20:01:35.229Z,100436.31
2019-05-19T20:04:05.033Z,100435.20
2019-05-19T20:06:34.584Z,100439.23
2019-05-19T20:09:05.485Z,100436.73
2019-05-19T20:11:37.157Z,100435.34
2019-05-19T20:14:07.039Z,100435.05
2019-05-19T20:16:36.733Z,100434.77
2019-05-19T20:19:06.992Z,100442.36
2019-05-19T20:21:36.342Z,100435.88
2019-05-19T20:24:05.884Z,100427.22
2019-05-19T20:26:35.334Z,100430.21
2019-05-19T20:29:05.003Z,100432.34
2019-05-19T20:31:34.348Z,100429.63
2019-05-19T20:34:03.885Z,100426.27
2019-05-19T20:36:33.417Z,100435.42
2019-05-19T20:39:03.131Z,100429.44
2019-05-19T20:41:32.616Z,100425.36
2019-05-19T20:44:02.001Z,100428.52
2019-05-19T20:46:31.378Z,100422.20
2019-05-19T20:49:00.858Z,100415.88
2019-05-19T20:51:32.547Z,100414.20
2019-05-19T20:54:02.037Z,100419.59
2019-05-19T20:56:31.888Z,100420.91
2019-05-19T20:59:01.378Z,100422.47
2019-05-19T21:01:30.742Z,100427.84
2019-05-19T21:04:03.645Z,100427.80
2019-05-19T21:06:33.160Z,100431.84
2019-05-19T21:09:02.587Z,100437.50
2019-05-19T21:11:32.808Z,100419.33
2019-05-19T21:14:02.803Z,100411.13
2019-05-19T21:16:33.538Z,100413.22
2019-05-19T21:19:06.135Z,100415.38
2019-05-19T21:21:35.514Z,100416.16
2019-05-19T21:24:05.076Z,100418.38
2019-05-19T21:26:35.193Z,100420.27
2019-05-19T21:29:06.032Z,100433.68
2019-05-19T21:31:35.515Z,100449.73
2019-05-19T21:34:05.193Z,100439.77
2019-05-19T21:36:34.774Z,100424.88
2019-05-19T21:39:04.905Z,100425.46
2019-05-19T21:41:34.463Z,100414.67
2019-05-19T21:44:04.298Z,100410.08
2019-05-19T21:46:33.859Z,100407.05
2019-05-19T21:49:04.940Z,100398.79
2019-05-19T21:51:34.360Z,100402.58
2019-05-19T21:54:06.195Z,100404.75
2019-05-19T21:56:36.729Z,100403.20
2019-05-19T21:59:06.267Z,100391.40
2019-05-19T22:01:35.742Z,100384.19
2019-05-19T22:04:05.340Z,100389.73
2019-05-19T22:06:36.685Z,100392.92
2019-05-19T22:09:06.945Z,100386.91
2019-05-19T22:11:36.613Z,100386.81
2019-05-19T22:14:06.387Z,100389.45
2019-05-19T22:16:36.705Z,100390.28
2019-05-19T22:19:06.255Z,100383.52
2019-05-19T22:21:35.820Z,100392.43
2019-05-19T22:24:05.389Z,100383.22
2019-05-19T22:26:37.744Z,100385.86
2019-05-19T22:29:07.112Z,100383.05
2019-05-19T22:31:37.291Z,100380.01
2019-05-19T22:34:06.848Z,100377.29
2019-05-19T22:36:36.310Z,100376.44
2019-05-19T22:39:07.684Z,100377.73
2019-05-19T22:41:37.185Z,100382.37
2019-05-19T22:44:06.595Z,100385.69
2019-05-19T22:46:36.143Z,100378.93
2019-05-19T22:49:06.905Z,100389.76
2019-05-19T22:51:36.303Z,100383.27
2019-05-19T22:54:05.810Z,100381.66
2019-05-19T22:56:35.365Z,100377.87
2019-05-19T22:59:19.839Z,100379.22
2019-05-19T23:01:50.990Z,100368.94
2019-05-19T23:04:10.503Z,100363.01
2019-05-19T23:06:39.874Z,100364.22
2019-05-19T23:09:14.551Z,100362.05
2019-05-19T23:11:43.897Z,100356.36
2019-05-19T23:14:13.448Z,100360.94
2019-05-19T23:16:43.929Z,100342.45
2019-05-19T23:19:13.333Z,100335.86
2019-05-19T23:21:42.734Z,100334.41
2019-05-19T23:24:13.426Z,100337.34
2019-05-19T23:26:42.830Z,100341.40
2019-05-19T23:29:12.219Z,100337.93
2019-05-19T23:31:41.787Z,100338.52
2019-05-19T23:34:11.233Z,100331.23
2019-05-19T23:36:40.596Z,100329.06
2019-05-19T23:39:10.063Z,100335.34
2019-05-19T23:41:39.430Z,100325.88
2019-05-19T23:44:08.893Z,100326.17
2019-05-19T23:46:38.415Z,100324.77
2019-05-19T23:49:10.733Z,100331.70
2019-05-19T23:51:40.105Z,100338.98
2019-05-19T23:54:11.525Z,100329.22
2019-05-19T23:56:40.905Z,100329.41
2019-05-19T23:59:10.312Z,100323.42
